sensor_id;sensor_type;location;lat;lon;timestamp;temperature;humidity
4828;DHT22;2428;48.732;9.148;2022-11-25T00:01:58;4.00;99.90
4828;DHT22;2428;48.732;9.148;2022-11-25T00:04:24;4.00;99.90
4828;DHT22;2428;48.732;9.148;2022-11-25T00:06:50;4.00;99.90
4828;DHT22;2428;48.732;9.148;2022-11-25T00:09:15;4.10;99.90
4828;DHT22;2428;48.732;9.148;2022-11-25T00:11:41;4.10;99.90
4828;DHT22;2428;48.732;9.148;2022-11-25T00:14:12;4.20;99.90
4828;DHT22;2428;48.732;9.148;2022-11-25T00:16:38;4.20;99.90
4828;DHT22;2428;48.732;9.148;2022-11-25T00:19:03;4.20;99.90
4828;DHT22;2428;48.732;9.148;2022-11-25T00:21:32;4.20;99.90
4828;DHT22;2428;48.732;9.148;2022-11-25T00:24:01;4.20;99.90
4828;DHT22;2428;48.732;9.148;2022-11-25T00:26:28;4.20;99.90
4828;DHT22;2428;48.732;9.148;2022-11-25T00:28:58;4.20;99.90
4828;DHT22;2428;48.732;9.148;2022-11-25T00:31:26;4.10;99.90
4828;DHT22;2428;48.732;9.148;2022-11-25T00:33:52;4.10;99.90
4828;DHT22;2428;48.732;9.148;2022-11-25T00:36:29;4.20;99.90
4828;DHT22;2428;48.732;9.148;2022-11-25T00:41:22;4.20;99.90
4828;DHT22;2428;48.732;9.148;2022-11-25T00:44:09;4.20;99.90
4828;DHT22;2428;48.732;9.148;2022-11-25T00:46:53;4.30;99.90
4828;DHT22;2428;48.732;9.148;2022-11-25T00:49:19;4.30;99.90
4828;DHT22;2428;48.732;9.148;2022-11-25T00:51:44;4.30;99.90
4828;DHT22;2428;48.732;9.148;2022-11-25T00:54:10;4.40;99.90
4828;DHT22;2428;48.732;9.148;2022-11-25T00:56:36;4.30;99.90
4828;DHT22;2428;48.732;9.148;2022-11-25T00:59:02;4.40;99.90
4828;DHT22;2428;48.732;9.148;2022-11-25T01:01:27;4.40;99.90
4828;DHT22;2428;48.732;9.148;2022-11-25T01:03:53;4.50;99.90
4828;DHT22;2428;48.732;9.148;2022-11-25T01:06:19;4.50;99.90
4828;DHT22;2428;48.732;9.148;2022-11-25T01:08:45;4.50;99.90
4828;DHT22;2428;48.732;9.148;2022-11-25T01:11:13;4.50;99.90
4828;DHT22;2428;48.732;9.148;2022-11-25T01:13:39;4.50;99.90
4828;DHT22;2428;48.732;9.148;2022-11-25T01:16:07;4.50;99.90
4828;DHT22;2428;48.732;9.148;2022-11-25T01:18:33;4.50;99.90
4828;DHT22;2428;48.732;9.148;2022-11-25T01:23:39;4.50;99.90
4828;DHT22;2428;48.732;9.148;2022-11-25T01:26:08;4.60;99.90
4828;DHT22;2428;48.732;9.148;2022-11-25T01:28:35;4.60;99.90
4828;DHT22;2428;48.732;9.148;2022-11-25T01:31:04;4.60;99.90
4828;DHT22;2428;48.732;9.148;2022-11-25T01:33:31;4.60;99.90
4828;DHT22;2428;48.732;9.148;2022-11-25T01:36:04;4.50;99.90
4828;DHT22;2428;48.732;9.148;2022-11-25T01:38:31;4.50;99.90
4828;DHT22;2428;48.732;9.148;2022-11-25T01:40:58;4.50;99.90
4828;DHT22;2428;48.732;9.148;2022-11-25T01:43:25;4.50;99.90
4828;DHT22;2428;48.732;9.148;2022-11-25T01:45:51;4.60;99.90
4828;DHT22;2428;48.732;9.148;2022-11-25T01:48:21;4.60;99.90
4828;DHT22;2428;48.732;9.148;2022-11-25T01:50:49;4.60;99.90
4828;DHT22;2428;48.732;9.148;2022-11-25T01:53:17;4.60;99.90
4828;DHT22;2428;48.732;9.148;2022-11-25T01:55:50;4.60;99.90
4828;DHT22;2428;48.732;9.148;2022-11-25T01:58:21;4.60;99.90
4828;DHT22;2428;48.732;9.148;2022-11-25T02:00:50;4.60;99.90
4828;DHT22;2428;48.732;9.148;2022-11-25T02:03:27;4.60;99.90
4828;DHT22;2428;48.732;9.148;2022-11-25T02:05:58;4.60;99.90
4828;DHT22;2428;48.732;9.148;2022-11-25T02:08:27;4.60;99.90
4828;DHT22;2428;48.732;9.148;2022-11-25T02:10:54;4.60;99.90
4828;DHT22;2428;48.732;9.148;2022-11-25T02:13:22;4.60;99.90
4828;DHT22;2428;48.732;9.148;2022-11-25T02:15:48;4.60;99.90
4828;DHT22;2428;48.732;9.148;2022-11-25T02:18:14;4.60;99.90
4828;DHT22;2428;48.732;9.148;2022-11-25T02:20:40;4.60;99.90
4828;DHT22;2428;48.732;9.148;2022-11-25T02:25:51;4.50;99.90
4828;DHT22;2428;48.732;9.148;2022-11-25T02:28:28;4.50;99.90
4828;DHT22;2428;48.732;9.148;2022-11-25T02:30:56;4.50;99.90
4828;DHT22;2428;48.732;9.148;2022-11-25T02:33:21;4.40;99.90
4828;DHT22;2428;48.732;9.148;2022-11-25T02:35:54;4.40;99.90
4828;DHT22;2428;48.732;9.148;2022-11-25T02:38:49;4.40;99.90
4828;DHT22;2428;48.732;9.148;2022-11-25T02:41:43;4.40;99.90
4828;DHT22;2428;48.732;9.148;2022-11-25T02:44:10;4.30;99.90
4828;DHT22;2428;48.732;9.148;2022-11-25T02:46:36;4.30;99.90
4828;DHT22;2428;48.732;9.148;2022-11-25T02:49:03;4.30;99.90
4828;DHT22;2428;48.732;9.148;2022-11-25T02:51:29;4.30;99.90
4828;DHT22;2428;48.732;9.148;2022-11-25T02:53:56;4.30;99.90
4828;DHT22;2428;48.732;9.148;2022-11-25T02:56:24;4.30;99.90
4828;DHT22;2428;48.732;9.148;2022-11-25T02:58:49;4.30;99.90
4828;DHT22;2428;48.732;9.148;2022-11-25T03:01:15;4.30;99.90
4828;DHT22;2428;48.732;9.148;2022-11-25T03:03:41;4.20;99.90
4828;DHT22;2428;48.732;9.148;2022-11-25T03:06:07;4.30;99.90
4828;DHT22;2428;48.732;9.148;2022-11-25T03:08:33;4.20;99.90
4828;DHT22;2428;48.732;9.148;2022-11-25T03:10:59;4.20;99.90
4828;DHT22;2428;48.732;9.148;2022-11-25T03:13:25;4.20;99.90
4828;DHT22;2428;48.732;9.148;2022-11-25T03:15:50;4.10;99.90
4828;DHT22;2428;48.732;9.148;2022-11-25T03:18:16;4.10;99.90
4828;DHT22;2428;48.732;9.148;2022-11-25T03:20:43;4.10;99.90
4828;DHT22;2428;48.732;9.148;2022-11-25T03:23:08;4.10;99.90
4828;DHT22;2428;48.732;9.148;2022-11-25T03:25:34;4.10;99.90
4828;DHT22;2428;48.732;9.148;2022-11-25T03:28:01;4.20;99.90
4828;DHT22;2428;48.732;9.148;2022-11-25T03:30:27;4.20;99.90
4828;DHT22;2428;48.732;9.148;2022-11-25T03:32:53;4.30;99.90
4828;DHT22;2428;48.732;9.148;2022-11-25T03:35:19;4.30;99.90
4828;DHT22;2428;48.732;9.148;2022-11-25T03:37:45;4.30;99.90
4828;DHT22;2428;48.732;9.148;2022-11-25T03:40:13;4.20;99.90
4828;DHT22;2428;48.732;9.148;2022-11-25T03:42:39;4.20;99.90
4828;DHT22;2428;48.732;9.148;2022-11-25T03:45:06;4.20;99.90
4828;DHT22;2428;48.732;9.148;2022-11-25T03:47:32;4.20;99.90
4828;DHT22;2428;48.732;9.148;2022-11-25T03:49:57;4.10;99.90
4828;DHT22;2428;48.732;9.148;2022-11-25T03:52:23;4.10;99.90
4828;DHT22;2428;48.732;9.148;2022-11-25T03:54:49;4.10;99.90
4828;DHT22;2428;48.732;9.148;2022-11-25T03:57:14;4.20;99.90
4828;DHT22;2428;48.732;9.148;2022-11-25T03:59:40;4.10;99.90
4828;DHT22;2428;48.732;9.148;2022-11-25T04:02:06;4.10;99.90
4828;DHT22;2428;48.732;9.148;2022-11-25T04:04:31;4.20;99.90
4828;DHT22;2428;48.732;9.148;2022-11-25T04:06:57;4.20;99.90
4828;DHT22;2428;48.732;9.148;2022-11-25T04:09:23;4.20;99.90
4828;DHT22;2428;48.732;9.148;2022-11-25T04:11:50;4.20;99.90
4828;DHT22;2428;48.732;9.148;2022-11-25T04:14:34;4.20;99.90
4828;DHT22;2428;48.732;9.148;2022-11-25T04:16:59;4.30;99.90
4828;DHT22;2428;48.732;9.148;2022-11-25T04:19:25;4.30;99.90
4828;DHT22;2428;48.732;9.148;2022-11-25T04:21:50;4.20;99.90
4828;DHT22;2428;48.732;9.148;2022-11-25T04:24:16;4.10;99.90
4828;DHT22;2428;48.732;9.148;2022-11-25T04:26:42;4.00;99.90
4828;DHT22;2428;48.732;9.148;2022-11-25T04:29:07;3.90;99.90
4828;DHT22;2428;48.732;9.148;2022-11-25T04:31:33;3.90;99.90
4828;DHT22;2428;48.732;9.148;2022-11-25T04:33:58;3.80;99.90
4828;DHT22;2428;48.732;9.148;2022-11-25T04:36:24;3.80;99.90
4828;DHT22;2428;48.732;9.148;2022-11-25T04:38:50;3.60;99.90
4828;DHT22;2428;48.732;9.148;2022-11-25T04:41:15;3.60;99.90
4828;DHT22;2428;48.732;9.148;2022-11-25T04:43:41;3.60;99.90
4828;DHT22;2428;48.732;9.148;2022-11-25T04:46:06;3.60;99.90
4828;DHT22;2428;48.732;9.148;2022-11-25T04:48:33;3.50;99.90
4828;DHT22;2428;48.732;9.148;2022-11-25T04:50:59;3.50;99.90
4828;DHT22;2428;48.732;9.148;2022-11-25T04:53:24;3.40;99.90
4828;DHT22;2428;48.732;9.148;2022-11-25T04:55:50;3.30;99.90
4828;DHT22;2428;48.732;9.148;2022-11-25T04:58:15;3.30;99.90
4828;DHT22;2428;48.732;9.148;2022-11-25T05:01:01;3.20;99.90
4828;DHT22;2428;48.732;9.148;2022-11-25T05:03:27;3.20;99.90
4828;DHT22;2428;48.732;9.148;2022-11-25T05:05:52;3.10;99.90
4828;DHT22;2428;48.732;9.148;2022-11-25T05:08:18;3.10;99.90
4828;DHT22;2428;48.732;9.148;2022-11-25T05:10:43;3.00;99.90
4828;DHT22;2428;48.732;9.148;2022-11-25T05:13:09;3.00;99.90
4828;DHT22;2428;48.732;9.148;2022-11-25T05:15:34;3.00;99.90
4828;DHT22;2428;48.732;9.148;2022-11-25T05:18:00;3.00;99.90
4828;DHT22;2428;48.732;9.148;2022-11-25T05:20:25;3.00;99.90
4828;DHT22;2428;48.732;9.148;2022-11-25T05:22:51;2.90;99.90
4828;DHT22;2428;48.732;9.148;2022-11-25T05:25:16;3.00;99.90
4828;DHT22;2428;48.732;9.148;2022-11-25T05:27:45;3.00;99.90
4828;DHT22;2428;48.732;9.148;2022-11-25T05:30:10;3.00;99.90
4828;DHT22;2428;48.732;9.148;2022-11-25T05:32:36;3.00;99.90
4828;DHT22;2428;48.732;9.148;2022-11-25T05:35:02;3.10;99.90
4828;DHT22;2428;48.732;9.148;2022-11-25T05:37:28;3.10;99.90
4828;DHT22;2428;48.732;9.148;2022-11-25T05:39:53;3.20;99.90
4828;DHT22;2428;48.732;9.148;2022-11-25T05:42:19;3.10;99.90
4828;DHT22;2428;48.732;9.148;2022-11-25T05:44:44;3.10;99.90
4828;DHT22;2428;48.732;9.148;2022-11-25T05:47:10;3.10;99.90
4828;DHT22;2428;48.732;9.148;2022-11-25T05:49:35;3.10;99.90
4828;DHT22;2428;48.732;9.148;2022-11-25T05:52:01;3.20;99.90
4828;DHT22;2428;48.732;9.148;2022-11-25T05:54:27;3.20;99.90
4828;DHT22;2428;48.732;9.148;2022-11-25T05:56:52;3.20;99.90
4828;DHT22;2428;48.732;9.148;2022-11-25T05:59:18;3.20;99.90
4828;DHT22;2428;48.732;9.148;2022-11-25T06:01:43;3.20;99.90
4828;DHT22;2428;48.732;9.148;2022-11-25T06:04:09;3.20;99.90
4828;DHT22;2428;48.732;9.148;2022-11-25T06:06:35;3.20;99.90
4828;DHT22;2428;48.732;9.148;2022-11-25T06:09:01;3.20;99.90
4828;DHT22;2428;48.732;9.148;2022-11-25T06:11:27;3.20;99.90
4828;DHT22;2428;48.732;9.148;2022-11-25T06:13:55;3.20;99.90
4828;DHT22;2428;48.732;9.148;2022-11-25T06:16:22;3.20;99.90
4828;DHT22;2428;48.732;9.148;2022-11-25T06:18:48;3.20;99.90
4828;DHT22;2428;48.732;9.148;2022-11-25T06:21:14;3.20;99.90
4828;DHT22;2428;48.732;9.148;2022-11-25T06:23:40;3.20;99.90
4828;DHT22;2428;48.732;9.148;2022-11-25T06:26:20;3.20;99.90
4828;DHT22;2428;48.732;9.148;2022-11-25T06:28:47;3.30;99.90
4828;DHT22;2428;48.732;9.148;2022-11-25T06:31:17;3.30;99.90
4828;DHT22;2428;48.732;9.148;2022-11-25T06:33:46;3.40;99.90
4828;DHT22;2428;48.732;9.148;2022-11-25T06:36:12;3.40;99.90
4828;DHT22;2428;48.732;9.148;2022-11-25T06:38:45;3.40;99.90
4828;DHT22;2428;48.732;9.148;2022-11-25T06:41:11;3.40;99.90
4828;DHT22;2428;48.732;9.148;2022-11-25T06:43:36;3.40;99.90
4828;DHT22;2428;48.732;9.148;2022-11-25T06:46:06;3.40;99.90
4828;DHT22;2428;48.732;9.148;2022-11-25T06:48:33;3.40;99.90
4828;DHT22;2428;48.732;9.148;2022-11-25T06:51:00;3.40;99.90
4828;DHT22;2428;48.732;9.148;2022-11-25T06:53:27;3.40;99.90
4828;DHT22;2428;48.732;9.148;2022-11-25T06:56:10;3.40;99.90
4828;DHT22;2428;48.732;9.148;2022-11-25T06:58:36;3.40;99.90
4828;DHT22;2428;48.732;9.148;2022-11-25T07:01:05;3.50;99.90
4828;DHT22;2428;48.732;9.148;2022-11-25T07:03:31;3.50;99.90
4828;DHT22;2428;48.732;9.148;2022-11-25T07:05:58;3.60;99.90
4828;DHT22;2428;48.732;9.148;2022-11-25T07:08:25;3.60;99.90
4828;DHT22;2428;48.732;9.148;2022-11-25T07:10:50;3.70;99.90
4828;DHT22;2428;48.732;9.148;2022-11-25T07:13:16;3.80;99.90
4828;DHT22;2428;48.732;9.148;2022-11-25T07:15:42;3.90;99.90
4828;DHT22;2428;48.732;9.148;2022-11-25T07:18:07;3.90;99.90
4828;DHT22;2428;48.732;9.148;2022-11-25T07:20:33;4.00;99.90
4828;DHT22;2428;48.732;9.148;2022-11-25T07:22:58;4.10;99.90
4828;DHT22;2428;48.732;9.148;2022-11-25T07:25:24;4.10;99.90
4828;DHT22;2428;48.732;9.148;2022-11-25T07:27:49;4.20;99.90
4828;DHT22;2428;48.732;9.148;2022-11-25T07:30:15;4.10;99.90
4828;DHT22;2428;48.732;9.148;2022-11-25T07:32:41;4.10;99.90
4828;DHT22;2428;48.732;9.148;2022-11-25T07:35:07;4.20;99.90
4828;DHT22;2428;48.732;9.148;2022-11-25T07:37:32;4.20;99.90
4828;DHT22;2428;48.732;9.148;2022-11-25T07:39:58;4.30;99.90
4828;DHT22;2428;48.732;9.148;2022-11-25T07:42:23;4.40;99.90
4828;DHT22;2428;48.732;9.148;2022-11-25T07:44:49;4.50;99.90
4828;DHT22;2428;48.732;9.148;2022-11-25T07:47:14;4.50;99.90
4828;DHT22;2428;48.732;9.148;2022-11-25T07:49:40;4.50;99.90
4828;DHT22;2428;48.732;9.148;2022-11-25T07:52:06;4.50;99.90
4828;DHT22;2428;48.732;9.148;2022-11-25T07:54:31;4.60;99.90
4828;DHT22;2428;48.732;9.148;2022-11-25T07:56:57;4.60;99.90
4828;DHT22;2428;48.732;9.148;2022-11-25T07:59:23;4.70;99.90
4828;DHT22;2428;48.732;9.148;2022-11-25T08:01:53;4.70;99.90
4828;DHT22;2428;48.732;9.148;2022-11-25T08:04:20;4.70;99.90
4828;DHT22;2428;48.732;9.148;2022-11-25T08:06:47;4.70;99.90
4828;DHT22;2428;48.732;9.148;2022-11-25T08:09:16;4.70;99.90
4828;DHT22;2428;48.732;9.148;2022-11-25T08:11:46;4.80;99.90
4828;DHT22;2428;48.732;9.148;2022-11-25T08:14:12;4.90;99.90
4828;DHT22;2428;48.732;9.148;2022-11-25T08:16:38;4.90;99.90
4828;DHT22;2428;48.732;9.148;2022-11-25T08:19:06;5.00;99.90
4828;DHT22;2428;48.732;9.148;2022-11-25T08:21:33;5.00;99.90
4828;DHT22;2428;48.732;9.148;2022-11-25T08:23:58;5.10;99.90
4828;DHT22;2428;48.732;9.148;2022-11-25T08:26:26;5.20;99.90
4828;DHT22;2428;48.732;9.148;2022-11-25T08:28:55;5.20;99.90
4828;DHT22;2428;48.732;9.148;2022-11-25T08:31:23;5.30;99.90
4828;DHT22;2428;48.732;9.148;2022-11-25T08:33:50;5.40;99.90
4828;DHT22;2428;48.732;9.148;2022-11-25T08:36:16;5.50;99.90
4828;DHT22;2428;48.732;9.148;2022-11-25T08:38:43;5.60;99.90
4828;DHT22;2428;48.732;9.148;2022-11-25T08:41:11;5.70;99.90
4828;DHT22;2428;48.732;9.148;2022-11-25T08:43:37;5.80;99.90
4828;DHT22;2428;48.732;9.148;2022-11-25T08:46:07;5.90;99.90
4828;DHT22;2428;48.732;9.148;2022-11-25T08:48:33;5.90;99.90
4828;DHT22;2428;48.732;9.148;2022-11-25T08:50:59;6.00;99.90
4828;DHT22;2428;48.732;9.148;2022-11-25T08:53:24;6.00;99.90
4828;DHT22;2428;48.732;9.148;2022-11-25T08:55:50;6.00;99.90
4828;DHT22;2428;48.732;9.148;2022-11-25T08:58:15;6.20;99.90
4828;DHT22;2428;48.732;9.148;2022-11-25T09:00:42;6.20;99.90
4828;DHT22;2428;48.732;9.148;2022-11-25T09:03:09;6.40;99.90
4828;DHT22;2428;48.732;9.148;2022-11-25T09:05:39;6.80;99.90
4828;DHT22;2428;48.732;9.148;2022-11-25T09:08:06;7.40;99.90
4828;DHT22;2428;48.732;9.148;2022-11-25T09:10:32;8.00;99.90
4828;DHT22;2428;48.732;9.148;2022-11-25T09:12:58;9.10;99.90
4828;DHT22;2428;48.732;9.148;2022-11-25T09:15:24;9.70;99.90
4828;DHT22;2428;48.732;9.148;2022-11-25T09:18:01;9.90;99.90
4828;DHT22;2428;48.732;9.148;2022-11-25T09:20:27;9.80;99.90
4828;DHT22;2428;48.732;9.148;2022-11-25T09:22:53;9.50;99.90
4828;DHT22;2428;48.732;9.148;2022-11-25T09:25:20;8.70;99.90
4828;DHT22;2428;48.732;9.148;2022-11-25T09:27:45;8.30;99.90
4828;DHT22;2428;48.732;9.148;2022-11-25T09:30:11;7.90;99.90
4828;DHT22;2428;48.732;9.148;2022-11-25T09:32:37;7.70;99.90
4828;DHT22;2428;48.732;9.148;2022-11-25T09:35:02;7.60;99.90
4828;DHT22;2428;48.732;9.148;2022-11-25T09:37:28;7.60;99.90
4828;DHT22;2428;48.732;9.148;2022-11-25T09:39:54;7.70;99.90
4828;DHT22;2428;48.732;9.148;2022-11-25T09:45:37;7.70;99.90
4828;DHT22;2428;48.732;9.148;2022-11-25T09:48:53;7.60;99.90
4828;DHT22;2428;48.732;9.148;2022-11-25T09:51:30;7.50;99.90
4828;DHT22;2428;48.732;9.148;2022-11-25T09:54:20;7.50;99.90
4828;DHT22;2428;48.732;9.148;2022-11-25T09:56:52;7.50;99.90
4828;DHT22;2428;48.732;9.148;2022-11-25T09:59:31;7.60;99.90
4828;DHT22;2428;48.732;9.148;2022-11-25T10:02:02;7.60;99.90
4828;DHT22;2428;48.732;9.148;2022-11-25T10:04:41;7.60;99.90
4828;DHT22;2428;48.732;9.148;2022-11-25T10:07:18;7.70;99.90
4828;DHT22;2428;48.732;9.148;2022-11-25T10:09:45;7.80;99.90
4828;DHT22;2428;48.732;9.148;2022-11-25T10:12:37;7.90;99.90
4828;DHT22;2428;48.732;9.148;2022-11-25T10:15:10;7.80;99.90
4828;DHT22;2428;48.732;9.148;2022-11-25T10:17:45;7.80;99.90
4828;DHT22;2428;48.732;9.148;2022-11-25T10:20:25;8.00;99.90
4828;DHT22;2428;48.732;9.148;2022-11-25T10:22:59;8.10;99.90
4828;DHT22;2428;48.732;9.148;2022-11-25T10:25:30;8.10;99.90
4828;DHT22;2428;48.732;9.148;2022-11-25T10:33:17;8.30;99.90
4828;DHT22;2428;48.732;9.148;2022-11-25T10:41:23;8.40;99.90
4828;DHT22;2428;48.732;9.148;2022-11-25T10:43:49;8.50;99.90
4828;DHT22;2428;48.732;9.148;2022-11-25T10:51:58;8.80;99.90
4828;DHT22;2428;48.732;9.148;2022-11-25T10:54:26;8.80;99.90
4828;DHT22;2428;48.732;9.148;2022-11-25T10:57:04;8.70;99.90
4828;DHT22;2428;48.732;9.148;2022-11-25T10:59:40;8.70;99.90
4828;DHT22;2428;48.732;9.148;2022-11-25T11:07:18;8.60;99.90
4828;DHT22;2428;48.732;9.148;2022-11-25T11:09:44;8.60;99.90
4828;DHT22;2428;48.732;9.148;2022-11-25T11:14:44;8.60;99.90
4828;DHT22;2428;48.732;9.148;2022-11-25T11:22:35;8.60;99.90
4828;DHT22;2428;48.732;9.148;2022-11-25T11:25:25;8.60;99.90
4828;DHT22;2428;48.732;9.148;2022-11-25T11:27:52;8.60;99.90
4828;DHT22;2428;48.732;9.148;2022-11-25T11:30:24;8.60;99.90
4828;DHT22;2428;48.732;9.148;2022-11-25T11:33:05;8.60;99.90
4828;DHT22;2428;48.732;9.148;2022-11-25T11:38:30;8.60;99.90
4828;DHT22;2428;48.732;9.148;2022-11-25T11:55:12;8.50;99.90
4828;DHT22;2428;48.732;9.148;2022-11-25T11:58:08;8.50;99.90
4828;DHT22;2428;48.732;9.148;2022-11-25T12:00:46;8.50;99.90
4828;DHT22;2428;48.732;9.148;2022-11-25T12:03:21;8.40;99.90
4828;DHT22;2428;48.732;9.148;2022-11-25T12:05:48;8.40;99.90
4828;DHT22;2428;48.732;9.148;2022-11-25T12:08:31;8.50;99.90
4828;DHT22;2428;48.732;9.148;2022-11-25T12:11:10;8.50;99.90
4828;DHT22;2428;48.732;9.148;2022-11-25T12:13:47;8.50;99.90
4828;DHT22;2428;48.732;9.148;2022-11-25T12:16:28;8.50;99.90
4828;DHT22;2428;48.732;9.148;2022-11-25T12:21:48;8.40;99.90
4828;DHT22;2428;48.732;9.148;2022-11-25T12:27:17;8.40;99.90
4828;DHT22;2428;48.732;9.148;2022-11-25T12:40:32;8.60;99.90
4828;DHT22;2428;48.732;9.148;2022-11-25T12:45:50;8.70;99.90
4828;DHT22;2428;48.732;9.148;2022-11-25T12:48:16;8.70;99.90
4828;DHT22;2428;48.732;9.148;2022-11-25T12:56:51;8.70;99.90
4828;DHT22;2428;48.732;9.148;2022-11-25T13:10:42;8.70;99.90
4828;DHT22;2428;48.732;9.148;2022-11-25T13:16:05;8.60;99.90
4828;DHT22;2428;48.732;9.148;2022-11-25T13:18:32;8.60;99.90
4828;DHT22;2428;48.732;9.148;2022-11-25T13:21:06;8.50;99.90
4828;DHT22;2428;48.732;9.148;2022-11-25T13:23:54;8.40;99.90
4828;DHT22;2428;48.732;9.148;2022-11-25T13:29:00;8.40;99.90
4828;DHT22;2428;48.732;9.148;2022-11-25T13:31:35;8.40;99.90
4828;DHT22;2428;48.732;9.148;2022-11-25T13:36:46;8.50;99.90
4828;DHT22;2428;48.732;9.148;2022-11-25T13:39:15;8.50;99.90
4828;DHT22;2428;48.732;9.148;2022-11-25T13:41:44;8.60;99.90
4828;DHT22;2428;48.732;9.148;2022-11-25T13:44:21;8.50;99.90
4828;DHT22;2428;48.732;9.148;2022-11-25T13:46:50;8.50;99.90
4828;DHT22;2428;48.732;9.148;2022-11-25T13:52:07;8.40;99.90
4828;DHT22;2428;48.732;9.148;2022-11-25T13:54:50;8.50;99.90
4828;DHT22;2428;48.732;9.148;2022-11-25T13:57:32;8.50;99.90
4828;DHT22;2428;48.732;9.148;2022-11-25T14:00:40;8.60;99.90
4828;DHT22;2428;48.732;9.148;2022-11-25T14:02:53;8.50;99.90
4828;DHT22;2428;48.732;9.148;2022-11-25T14:05:54;8.50;99.90
4828;DHT22;2428;48.732;9.148;2022-11-25T14:09:12;8.40;99.90
4828;DHT22;2428;48.732;9.148;2022-11-25T14:20:29;8.20;99.90
4828;DHT22;2428;48.732;9.148;2022-11-25T14:26:07;8.20;99.90
4828;DHT22;2428;48.732;9.148;2022-11-25T14:28:44;8.20;99.90
4828;DHT22;2428;48.732;9.148;2022-11-25T14:31:15;8.20;99.90
4828;DHT22;2428;48.732;9.148;2022-11-25T14:33:54;8.20;99.90
4828;DHT22;2428;48.732;9.148;2022-11-25T14:36:25;8.20;99.90
4828;DHT22;2428;48.732;9.148;2022-11-25T14:39:07;8.20;99.90
4828;DHT22;2428;48.732;9.148;2022-11-25T14:41:35;8.20;99.90
4828;DHT22;2428;48.732;9.148;2022-11-25T14:44:04;8.20;99.90
4828;DHT22;2428;48.732;9.148;2022-11-25T14:46:31;8.20;99.90
4828;DHT22;2428;48.732;9.148;2022-11-25T14:49:02;8.20;99.90
4828;DHT22;2428;48.732;9.148;2022-11-25T14:51:34;8.20;99.90
4828;DHT22;2428;48.732;9.148;2022-11-25T14:54:01;8.20;99.90
4828;DHT22;2428;48.732;9.148;2022-11-25T14:56:29;8.20;99.90
4828;DHT22;2428;48.732;9.148;2022-11-25T14:58:56;8.20;99.90
4828;DHT22;2428;48.732;9.148;2022-11-25T15:03:50;8.20;99.90
4828;DHT22;2428;48.732;9.148;2022-11-25T15:06:16;8.20;99.90
4828;DHT22;2428;48.732;9.148;2022-11-25T15:08:54;8.20;99.90
4828;DHT22;2428;48.732;9.148;2022-11-25T15:11:22;8.20;99.90
4828;DHT22;2428;48.732;9.148;2022-11-25T15:14:01;8.20;99.90
4828;DHT22;2428;48.732;9.148;2022-11-25T15:16:38;8.20;99.90
4828;DHT22;2428;48.732;9.148;2022-11-25T15:19:18;8.20;99.90
4828;DHT22;2428;48.732;9.148;2022-11-25T15:21:44;8.20;99.90
4828;DHT22;2428;48.732;9.148;2022-11-25T15:24:26;8.20;99.90
4828;DHT22;2428;48.732;9.148;2022-11-25T15:26:58;8.20;99.90
4828;DHT22;2428;48.732;9.148;2022-11-25T15:29:25;8.20;99.90
4828;DHT22;2428;48.732;9.148;2022-11-25T15:31:52;8.20;99.90
4828;DHT22;2428;48.732;9.148;2022-11-25T15:34:21;8.10;99.90
4828;DHT22;2428;48.732;9.148;2022-11-25T15:36:47;8.10;99.90
4828;DHT22;2428;48.732;9.148;2022-11-25T15:41:46;8.10;99.90
4828;DHT22;2428;48.732;9.148;2022-11-25T15:47:05;8.10;99.90
4828;DHT22;2428;48.732;9.148;2022-11-25T15:49:32;8.10;99.90
4828;DHT22;2428;48.732;9.148;2022-11-25T15:52:12;8.10;99.90
4828;DHT22;2428;48.732;9.148;2022-11-25T15:54:49;8.10;99.90
4828;DHT22;2428;48.732;9.148;2022-11-25T15:57:29;8.10;99.90
4828;DHT22;2428;48.732;9.148;2022-11-25T16:18:21;7.90;99.90
4828;DHT22;2428;48.732;9.148;2022-11-25T16:20:53;7.80;99.90
4828;DHT22;2428;48.732;9.148;2022-11-25T16:23:21;7.80;99.90
4828;DHT22;2428;48.732;9.148;2022-11-25T16:25:49;7.80;99.90
4828;DHT22;2428;48.732;9.148;2022-11-25T16:28:24;7.80;99.90
4828;DHT22;2428;48.732;9.148;2022-11-25T16:30:50;7.80;99.90
4828;DHT22;2428;48.732;9.148;2022-11-25T16:33:16;7.80;99.90
4828;DHT22;2428;48.732;9.148;2022-11-25T16:35:41;7.80;99.90
4828;DHT22;2428;48.732;9.148;2022-11-25T16:38:09;7.80;99.90
4828;DHT22;2428;48.732;9.148;2022-11-25T16:40:36;7.80;99.90
4828;DHT22;2428;48.732;9.148;2022-11-25T16:43:02;7.80;99.90
4828;DHT22;2428;48.732;9.148;2022-11-25T16:45:28;7.70;99.90
4828;DHT22;2428;48.732;9.148;2022-11-25T16:47:54;7.80;99.90
4828;DHT22;2428;48.732;9.148;2022-11-25T16:50:20;7.70;99.90
4828;DHT22;2428;48.732;9.148;2022-11-25T16:52:46;7.80;99.90
4828;DHT22;2428;48.732;9.148;2022-11-25T16:55:11;7.80;99.90
4828;DHT22;2428;48.732;9.148;2022-11-25T16:57:38;7.80;99.90
4828;DHT22;2428;48.732;9.148;2022-11-25T17:00:09;7.80;99.90
4828;DHT22;2428;48.732;9.148;2022-11-25T17:02:36;7.80;99.90
4828;DHT22;2428;48.732;9.148;2022-11-25T17:05:15;7.80;99.90
4828;DHT22;2428;48.732;9.148;2022-11-25T17:07:41;7.80;99.90
4828;DHT22;2428;48.732;9.148;2022-11-25T17:10:07;7.70;99.90
4828;DHT22;2428;48.732;9.148;2022-11-25T17:12:34;7.80;99.90
4828;DHT22;2428;48.732;9.148;2022-11-25T17:15:02;7.80;99.90
4828;DHT22;2428;48.732;9.148;2022-11-25T17:17:28;7.80;99.90
4828;DHT22;2428;48.732;9.148;2022-11-25T17:19:54;7.80;99.90
4828;DHT22;2428;48.732;9.148;2022-11-25T17:22:24;7.70;99.90
4828;DHT22;2428;48.732;9.148;2022-11-25T17:24:51;7.70;99.90
4828;DHT22;2428;48.732;9.148;2022-11-25T17:27:22;7.70;99.90
4828;DHT22;2428;48.732;9.148;2022-11-25T17:29:49;7.60;99.90
4828;DHT22;2428;48.732;9.148;2022-11-25T17:32:15;7.60;99.90
4828;DHT22;2428;48.732;9.148;2022-11-25T17:34:41;7.50;99.90
4828;DHT22;2428;48.732;9.148;2022-11-25T17:37:18;7.50;99.90
4828;DHT22;2428;48.732;9.148;2022-11-25T17:39:44;7.40;99.90
4828;DHT22;2428;48.732;9.148;2022-11-25T17:42:15;7.30;99.90
4828;DHT22;2428;48.732;9.148;2022-11-25T17:44:41;7.30;99.90
4828;DHT22;2428;48.732;9.148;2022-11-25T17:47:13;7.30;99.90
4828;DHT22;2428;48.732;9.148;2022-11-25T17:49:39;7.30;99.90
4828;DHT22;2428;48.732;9.148;2022-11-25T17:52:05;7.30;99.90
4828;DHT22;2428;48.732;9.148;2022-11-25T17:54:31;7.30;99.90
4828;DHT22;2428;48.732;9.148;2022-11-25T17:56:57;7.30;99.90
4828;DHT22;2428;48.732;9.148;2022-11-25T17:59:25;7.30;99.90
4828;DHT22;2428;48.732;9.148;2022-11-25T18:01:52;7.40;99.90
4828;DHT22;2428;48.732;9.148;2022-11-25T18:04:38;7.40;99.90
4828;DHT22;2428;48.732;9.148;2022-11-25T18:07:03;7.40;99.90
4828;DHT22;2428;48.732;9.148;2022-11-25T18:09:29;7.40;99.90
4828;DHT22;2428;48.732;9.148;2022-11-25T18:11:59;7.40;99.90
4828;DHT22;2428;48.732;9.148;2022-11-25T18:14:32;7.30;99.90
4828;DHT22;2428;48.732;9.148;2022-11-25T18:17:04;7.30;99.90
4828;DHT22;2428;48.732;9.148;2022-11-25T18:19:30;7.30;99.90
4828;DHT22;2428;48.732;9.148;2022-11-25T18:22:16;7.30;99.90
4828;DHT22;2428;48.732;9.148;2022-11-25T18:24:42;7.30;99.90
4828;DHT22;2428;48.732;9.148;2022-11-25T18:27:21;7.30;99.90
4828;DHT22;2428;48.732;9.148;2022-11-25T18:29:48;7.40;99.90
4828;DHT22;2428;48.732;9.148;2022-11-25T18:32:13;7.40;99.90
4828;DHT22;2428;48.732;9.148;2022-11-25T18:34:39;7.30;99.90
4828;DHT22;2428;48.732;9.148;2022-11-25T18:37:05;7.40;99.90
4828;DHT22;2428;48.732;9.148;2022-11-25T18:39:30;7.40;99.90
4828;DHT22;2428;48.732;9.148;2022-11-25T18:41:56;7.40;99.90
4828;DHT22;2428;48.732;9.148;2022-11-25T18:44:26;7.40;99.90
4828;DHT22;2428;48.732;9.148;2022-11-25T18:46:52;7.50;99.90
4828;DHT22;2428;48.732;9.148;2022-11-25T18:49:18;7.50;99.90
4828;DHT22;2428;48.732;9.148;2022-11-25T18:51:44;7.50;99.90
4828;DHT22;2428;48.732;9.148;2022-11-25T18:54:10;7.50;99.90